sensor_id;sensor_type;location;lat;lon;timestamp;P1;durP1;ratioP1;P2;durP2;ratioP2
67429;SDS011;54298;52.076;5.264;2022-09-02T00:01:09;3.5;;;0.6;;
67429;SDS011;54298;52.076;5.264;2022-09-02T00:04:26;2.1;;;0.8;;
67429;SDS011;54298;52.076;5.264;2022-09-02T00:06:03;2.1;;;0.7;;
67429;SDS011;54298;52.076;5.264;2022-09-02T00:07:40;3.4;;;0.7;;
67429;SDS011;54298;52.076;5.264;2022-09-02T00:09:17;3.5;;;0.7;;
67429;SDS011;54298;52.076;5.264;2022-09-02T00:12:34;2.6;;;0.6;;
67429;SDS011;54298;52.076;5.264;2022-09-02T00:14:13;4.1;;;0.7;;
67429;SDS011;54298;52.076;5.264;2022-09-02T00:15:53;2.1;;;0.6;;
67429;SDS011;54298;52.076;5.264;2022-09-02T00:17:30;2.0;;;0.7;;
67429;SDS011;54298;52.076;5.264;2022-09-02T00:20:44;1.9;;;0.6;;
67429;SDS011;54298;52.076;5.264;2022-09-02T00:22:23;3.2;;;0.8;;
67429;SDS011;54298;52.076;5.264;2022-09-02T00:23:59;1.8;;;0.6;;
67429;SDS011;54298;52.076;5.264;2022-09-02T00:27:15;2.21;;;0.6;;
67429;SDS011;54298;52.076;5.264;2022-09-02T00:28:51;1.5;;;0.6;;
67429;SDS011;54298;52.076;5.264;2022-09-02T00:30:28;3.7;;;0.6;;
67429;SDS011;54298;52.076;5.264;2022-09-02T00:33:41;3.1;;;0.6;;
67429;SDS011;54298;52.076;5.264;2022-09-02T00:35:17;3.7;;;0.4;;
67429;SDS011;54298;52.076;5.264;2022-09-02T00:36:53;2.21;;;0.7;;
67429;SDS011;54298;52.076;5.264;2022-09-02T00:38:33;2.6;;;0.6;;
67429;SDS011;54298;52.076;5.264;2022-09-02T00:41:48;1.8;;;0.5;;
67429;SDS011;54298;52.076;5.264;2022-09-02T00:43:36;3.8;;;0.6;;
67429;SDS011;54298;52.076;5.264;2022-09-02T00:45:18;1.9;;;0.6;;
67429;SDS011;54298;52.076;5.264;2022-09-02T00:46:56;1.9;;;0.6;;
67429;SDS011;54298;52.076;5.264;2022-09-02T00:50:14;3.9;;;0.5;;
67429;SDS011;54298;52.076;5.264;2022-09-02T00:51:56;3.0;;;0.6;;
67429;SDS011;54298;52.076;5.264;2022-09-02T00:53:39;1.8;;;0.6;;
67429;SDS011;54298;52.076;5.264;2022-09-02T00:55:19;2.4;;;0.5;;
67429;SDS011;54298;52.076;5.264;2022-09-02T00:58:38;2.21;;;0.7;;
67429;SDS011;54298;52.076;5.264;2022-09-02T01:00:17;2.8;;;0.7;;
67429;SDS011;54298;52.076;5.264;2022-09-02T01:01:57;1.4;;;0.5;;
67429;SDS011;54298;52.076;5.264;2022-09-02T01:03:33;2.0;;;0.6;;
67429;SDS011;54298;52.076;5.264;2022-09-02T01:06:51;4.61;;;0.5;;
67429;SDS011;54298;52.076;5.264;2022-09-02T01:08:31;4.61;;;0.5;;
67429;SDS011;54298;52.076;5.264;2022-09-02T01:10:10;2.8;;;0.5;;
67429;SDS011;54298;52.076;5.264;2022-09-02T01:13:34;2.21;;;0.6;;
67429;SDS011;54298;52.076;5.264;2022-09-02T01:15:14;1.2;;;0.5;;
67429;SDS011;54298;52.076;5.264;2022-09-02T01:16:51;1.3;;;0.7;;
67429;SDS011;54298;52.076;5.264;2022-09-02T01:18:30;1.11;;;0.5;;
67429;SDS011;54298;52.076;5.264;2022-09-02T01:21:54;3.0;;;0.7;;
67429;SDS011;54298;52.076;5.264;2022-09-02T01:23:32;2.5;;;0.8;;
67429;SDS011;54298;52.076;5.264;2022-09-02T01:25:11;1.6;;;0.7;;
67429;SDS011;54298;52.076;5.264;2022-09-02T01:26:52;4.61;;;0.6;;
67429;SDS011;54298;52.076;5.264;2022-09-02T01:30:11;2.1;;;0.6;;
67429;SDS011;54298;52.076;5.264;2022-09-02T01:31:51;1.3;;;0.4;;
67429;SDS011;54298;52.076;5.264;2022-09-02T01:33:28;2.0;;;0.6;;
67429;SDS011;54298;52.076;5.264;2022-09-02T01:35:05;1.4;;;0.6;;
67429;SDS011;54298;52.076;5.264;2022-09-02T01:38:20;2.7;;;0.6;;
67429;SDS011;54298;52.076;5.264;2022-09-02T01:39:58;2.0;;;0.6;;
67429;SDS011;54298;52.076;5.264;2022-09-02T01:41:35;2.5;;;0.5;;
67429;SDS011;54298;52.076;5.264;2022-09-02T01:44:53;2.1;;;0.6;;
67429;SDS011;54298;52.076;5.264;2022-09-02T01:48:05;2.7;;;0.7;;
67429;SDS011;54298;52.076;5.264;2022-09-02T01:49:44;3.0;;;0.7;;
67429;SDS011;54298;52.076;5.264;2022-09-02T01:52:57;1.6;;;0.6;;
67429;SDS011;54298;52.076;5.264;2022-09-02T01:54:34;2.4;;;0.5;;
67429;SDS011;54298;52.076;5.264;2022-09-02T01:56:11;3.2;;;0.6;;
67429;SDS011;54298;52.076;5.264;2022-09-02T01:59:24;3.9;;;0.6;;
67429;SDS011;54298;52.076;5.264;2022-09-02T02:01:02;2.7;;;0.8;;
67429;SDS011;54298;52.076;5.264;2022-09-02T02:02:39;2.4;;;0.7;;
67429;SDS011;54298;52.076;5.264;2022-09-02T02:04:16;1.5;;;0.6;;
67429;SDS011;54298;52.076;5.264;2022-09-02T02:07:28;1.5;;;0.6;;
67429;SDS011;54298;52.076;5.264;2022-09-02T02:10:41;2.31;;;0.7;;
67429;SDS011;54298;52.076;5.264;2022-09-02T02:13:55;2.21;;;0.7;;
67429;SDS011;54298;52.076;5.264;2022-09-02T02:15:32;2.1;;;0.8;;
67429;SDS011;54298;52.076;5.264;2022-09-02T02:17:11;2.4;;;0.8;;
67429;SDS011;54298;52.076;5.264;2022-09-02T02:20:26;4.2;;;0.9;;
67429;SDS011;54298;52.076;5.264;2022-09-02T02:22:01;1.3;;;0.5;;
67429;SDS011;54298;52.076;5.264;2022-09-02T02:23:38;2.31;;;0.4;;
67429;SDS011;54298;52.076;5.264;2022-09-02T02:25:16;1.6;;;0.6;;
67429;SDS011;54298;52.076;5.264;2022-09-02T02:28:30;1.5;;;0.6;;
67429;SDS011;54298;52.076;5.264;2022-09-02T02:30:07;2.31;;;0.6;;
67429;SDS011;54298;52.076;5.264;2022-09-02T02:31:45;1.11;;;0.6;;
67429;SDS011;54298;52.076;5.264;2022-09-02T02:34:59;2.9;;;0.9;;
67429;SDS011;54298;52.076;5.264;2022-09-02T02:36:36;2.21;;;0.6;;
67429;SDS011;54298;52.076;5.264;2022-09-02T02:38:13;2.9;;;0.8;;
67429;SDS011;54298;52.076;5.264;2022-09-02T02:39:49;3.6;;;0.8;;
67429;SDS011;54298;52.076;5.264;2022-09-02T02:43:01;1.7;;;0.6;;
67429;SDS011;54298;52.076;5.264;2022-09-02T02:44:39;2.31;;;0.6;;
67429;SDS011;54298;52.076;5.264;2022-09-02T02:46:17;1.11;;;0.5;;
67429;SDS011;54298;52.076;5.264;2022-09-02T02:49:34;1.2;;;0.6;;
67429;SDS011;54298;52.076;5.264;2022-09-02T02:51:12;3.8;;;0.9;;
67429;SDS011;54298;52.076;5.264;2022-09-02T02:52:48;1.9;;;0.8;;
67429;SDS011;54298;52.076;5.264;2022-09-02T02:54:27;2.4;;;0.6;;
67429;SDS011;54298;52.076;5.264;2022-09-02T02:57:43;2.21;;;0.6;;
67429;SDS011;54298;52.076;5.264;2022-09-02T02:59:21;2.4;;;0.6;;
67429;SDS011;54298;52.076;5.264;2022-09-02T03:00:58;5.0;;;0.7;;
67429;SDS011;54298;52.076;5.264;2022-09-02T03:04:12;2.1;;;0.5;;
67429;SDS011;54298;52.076;5.264;2022-09-02T03:05:48;2.8;;;0.6;;
67429;SDS011;54298;52.076;5.264;2022-09-02T03:07:25;3.8;;;0.6;;
67429;SDS011;54298;52.076;5.264;2022-09-02T03:09:02;3.6;;;0.6;;
67429;SDS011;54298;52.076;5.264;2022-09-02T03:12:18;1.6;;;0.7;;
67429;SDS011;54298;52.076;5.264;2022-09-02T03:13:54;1.8;;;0.5;;
67429;SDS011;54298;52.076;5.264;2022-09-02T03:15:31;2.31;;;0.7;;
67429;SDS011;54298;52.076;5.264;2022-09-02T03:18:45;3.3;;;0.7;;
67429;SDS011;54298;52.076;5.264;2022-09-02T03:20:22;2.31;;;0.6;;
67429;SDS011;54298;52.076;5.264;2022-09-02T03:21:59;4.1;;;0.8;;
67429;SDS011;54298;52.076;5.264;2022-09-02T03:25:11;3.4;;;0.6;;
67429;SDS011;54298;52.076;5.264;2022-09-02T03:26:50;4.3;;;0.7;;
67429;SDS011;54298;52.076;5.264;2022-09-02T03:28:26;4.1;;;0.6;;
67429;SDS011;54298;52.076;5.264;2022-09-02T03:30:03;2.6;;;0.7;;
67429;SDS011;54298;52.076;5.264;2022-09-02T03:33:19;2.6;;;0.7;;
67429;SDS011;54298;52.076;5.264;2022-09-02T03:34:55;1.6;;;0.8;;
67429;SDS011;54298;52.076;5.264;2022-09-02T03:36:33;1.9;;;0.7;;
67429;SDS011;54298;52.076;5.264;2022-09-02T03:39:48;2.21;;;0.6;;
67429;SDS011;54298;52.076;5.264;2022-09-02T03:41:24;2.7;;;0.7;;
67429;SDS011;54298;52.076;5.264;2022-09-02T03:43:00;1.4;;;0.6;;
67429;SDS011;54298;52.076;5.264;2022-09-02T03:44:39;3.4;;;0.8;;
67429;SDS011;54298;52.076;5.264;2022-09-02T03:47:53;4.2;;;0.9;;
67429;SDS011;54298;52.076;5.264;2022-09-02T03:49:30;1.6;;;0.8;;
67429;SDS011;54298;52.076;5.264;2022-09-02T03:51:07;1.4;;;0.6;;
67429;SDS011;54298;52.076;5.264;2022-09-02T03:54:21;2.21;;;0.8;;
67429;SDS011;54298;52.076;5.264;2022-09-02T03:55:58;2.0;;;0.7;;
67429;SDS011;54298;52.076;5.264;2022-09-02T03:57:40;2.8;;;0.8;;
67429;SDS011;54298;52.076;5.264;2022-09-02T03:59:17;4.61;;;0.7;;
67429;SDS011;54298;52.076;5.264;2022-09-02T04:02:31;2.21;;;0.7;;
67429;SDS011;54298;52.076;5.264;2022-09-02T04:04:07;5.4;;;0.8;;
67429;SDS011;54298;52.076;5.264;2022-09-02T04:05:44;5.3;;;0.7;;
67429;SDS011;54298;52.076;5.264;2022-09-02T04:08:57;1.6;;;0.5;;
67429;SDS011;54298;52.076;5.264;2022-09-02T04:10:33;3.6;;;0.5;;
67429;SDS011;54298;52.076;5.264;2022-09-02T04:12:11;2.6;;;0.8;;
67429;SDS011;54298;52.076;5.264;2022-09-02T04:15:27;4.2;;;0.6;;
67429;SDS011;54298;52.076;5.264;2022-09-02T04:17:03;4.2;;;0.6;;
67429;SDS011;54298;52.076;5.264;2022-09-02T04:18:39;1.11;;;0.5;;
67429;SDS011;54298;52.076;5.264;2022-09-02T04:20:16;2.1;;;0.9;;
67429;SDS011;54298;52.076;5.264;2022-09-02T04:23:28;1.9;;;0.5;;
67429;SDS011;54298;52.076;5.264;2022-09-02T04:25:06;2.4;;;0.9;;
67429;SDS011;54298;52.076;5.264;2022-09-02T04:26:44;2.31;;;0.8;;
67429;SDS011;54298;52.076;5.264;2022-09-02T04:29:58;3.4;;;0.7;;
67429;SDS011;54298;52.076;5.264;2022-09-02T04:31:34;2.5;;;0.7;;
67429;SDS011;54298;52.076;5.264;2022-09-02T04:33:11;1.7;;;0.6;;
67429;SDS011;54298;52.076;5.264;2022-09-02T04:34:48;2.1;;;0.8;;
67429;SDS011;54298;52.076;5.264;2022-09-02T04:38:03;2.31;;;0.7;;
67429;SDS011;54298;52.076;5.264;2022-09-02T04:39:39;3.0;;;0.7;;
67429;SDS011;54298;52.076;5.264;2022-09-02T04:41:16;2.9;;;0.5;;
67429;SDS011;54298;52.076;5.264;2022-09-02T04:44:34;3.0;;;0.7;;
67429;SDS011;54298;52.076;5.264;2022-09-02T04:46:11;3.2;;;0.5;;
67429;SDS011;54298;52.076;5.264;2022-09-02T04:47:50;1.7;;;0.8;;
67429;SDS011;54298;52.076;5.264;2022-09-02T04:51:08;3.0;;;0.6;;
67429;SDS011;54298;52.076;5.264;2022-09-02T04:52:50;1.8;;;0.6;;
67429;SDS011;54298;52.076;5.264;2022-09-02T04:54:26;1.9;;;0.6;;
67429;SDS011;54298;52.076;5.264;2022-09-02T04:56:03;2.0;;;0.7;;
67429;SDS011;54298;52.076;5.264;2022-09-02T04:59:20;2.5;;;0.7;;
67429;SDS011;54298;52.076;5.264;2022-09-02T05:00:56;1.9;;;0.4;;
67429;SDS011;54298;52.076;5.264;2022-09-02T05:02:33;2.1;;;0.8;;
67429;SDS011;54298;52.076;5.264;2022-09-02T05:04:09;2.7;;;0.7;;
67429;SDS011;54298;52.076;5.264;2022-09-02T05:07:34;3.1;;;1.0;;
67429;SDS011;54298;52.076;5.264;2022-09-02T05:09:11;3.1;;;0.6;;
67429;SDS011;54298;52.076;5.264;2022-09-02T05:10:49;2.7;;;0.6;;
67429;SDS011;54298;52.076;5.264;2022-09-02T05:14:04;2.8;;;0.8;;
67429;SDS011;54298;52.076;5.264;2022-09-02T05:15:43;3.3;;;0.6;;
67429;SDS011;54298;52.076;5.264;2022-09-02T05:17:20;2.8;;;0.9;;
67429;SDS011;54298;52.076;5.264;2022-09-02T05:18:57;4.1;;;0.7;;
67429;SDS011;54298;52.076;5.264;2022-09-02T05:22:14;5.9;;;0.7;;
67429;SDS011;54298;52.076;5.264;2022-09-02T05:23:51;2.8;;;0.9;;
67429;SDS011;54298;52.076;5.264;2022-09-02T05:25:27;1.2;;;0.7;;
67429;SDS011;54298;52.076;5.264;2022-09-02T05:28:40;2.0;;;0.6;;
67429;SDS011;54298;52.076;5.264;2022-09-02T05:30:17;2.5;;;0.7;;
67429;SDS011;54298;52.076;5.264;2022-09-02T05:31:53;2.8;;;0.8;;
67429;SDS011;54298;52.076;5.264;2022-09-02T05:33:30;3.5;;;0.7;;
67429;SDS011;54298;52.076;5.264;2022-09-02T05:36:44;2.6;;;0.7;;
67429;SDS011;54298;52.076;5.264;2022-09-02T05:38:21;2.6;;;0.7;;
67429;SDS011;54298;52.076;5.264;2022-09-02T05:39:57;5.8;;;0.9;;
67429;SDS011;54298;52.076;5.264;2022-09-02T05:43:10;5.6;;;1.4;;
67429;SDS011;54298;52.076;5.264;2022-09-02T05:44:47;7.3;;;1.6;;
67429;SDS011;54298;52.076;5.264;2022-09-02T05:46:24;7.5;;;1.5;;
67429;SDS011;54298;52.076;5.264;2022-09-02T05:49:05;15.1;;;7.3;;
67429;SDS011;54298;52.076;5.264;2022-09-02T05:50:41;4.7;;;1.7;;
67429;SDS011;54298;52.076;5.264;2022-09-02T05:52:17;4.41;;;1.2;;
67429;SDS011;54298;52.076;5.264;2022-09-02T05:55:31;6.1;;;2.0;;
67429;SDS011;54298;52.076;5.264;2022-09-02T05:57:09;3.8;;;1.2;;
67429;SDS011;54298;52.076;5.264;2022-09-02T05:58:49;4.7;;;1.3;;
67429;SDS011;54298;52.076;5.264;2022-09-02T06:02:02;3.2;;;1.2;;
67429;SDS011;54298;52.076;5.264;2022-09-02T06:03:38;5.2;;;1.5;;
67429;SDS011;54298;52.076;5.264;2022-09-02T06:05:17;3.1;;;1.2;;
67429;SDS011;54298;52.076;5.264;2022-09-02T06:06:53;20.6;;;10.21;;
67429;SDS011;54298;52.076;5.264;2022-09-02T06:10:09;10.8;;;6.2;;
67429;SDS011;54298;52.076;5.264;2022-09-02T06:13:26;5.2;;;2.5;;
67429;SDS011;54298;52.076;5.264;2022-09-02T06:16:41;3.7;;;1.6;;
67429;SDS011;54298;52.076;5.264;2022-09-02T06:18:19;7.9;;;2.31;;
67429;SDS011;54298;52.076;5.264;2022-09-02T06:19:55;5.2;;;1.4;;
67429;SDS011;54298;52.076;5.264;2022-09-02T06:21:34;3.4;;;0.8;;
67429;SDS011;54298;52.076;5.264;2022-09-02T06:24:48;4.2;;;0.9;;
67429;SDS011;54298;52.076;5.264;2022-09-02T06:26:24;10.3;;;2.0;;
67429;SDS011;54298;52.076;5.264;2022-09-02T06:28:02;6.0;;;1.6;;
67429;SDS011;54298;52.076;5.264;2022-09-02T06:31:16;3.4;;;1.0;;
67429;SDS011;54298;52.076;5.264;2022-09-02T06:32:58;4.5;;;1.0;;
67429;SDS011;54298;52.076;5.264;2022-09-02T06:34:34;7.7;;;2.7;;
67429;SDS011;54298;52.076;5.264;2022-09-02T06:36:11;9.81;;;3.2;;
67429;SDS011;54298;52.076;5.264;2022-09-02T06:39:27;9.0;;;3.3;;
67429;SDS011;54298;52.076;5.264;2022-09-02T06:41:04;7.5;;;2.6;;
67429;SDS011;54298;52.076;5.264;2022-09-02T06:42:41;7.6;;;1.5;;
67429;SDS011;54298;52.076;5.264;2022-09-02T06:45:54;3.2;;;0.9;;
67429;SDS011;54298;52.076;5.264;2022-09-02T06:49:07;6.0;;;1.4;;
67429;SDS011;54298;52.076;5.264;2022-09-02T06:52:21;6.4;;;1.9;;
67429;SDS011;54298;52.076;5.264;2022-09-02T06:53:57;11.3;;;2.6;;
67429;SDS011;54298;52.076;5.264;2022-09-02T06:55:34;6.5;;;1.5;;
67429;SDS011;54298;52.076;5.264;2022-09-02T06:57:12;5.6;;;1.3;;
67429;SDS011;54298;52.076;5.264;2022-09-02T07:00:24;5.7;;;1.2;;
67429;SDS011;54298;52.076;5.264;2022-09-02T07:02:00;4.61;;;1.11;;
67429;SDS011;54298;52.076;5.264;2022-09-02T07:06:33;5.7;;;1.2;;
67429;SDS011;54298;52.076;5.264;2022-09-02T07:08:13;4.8;;;1.11;;
67429;SDS011;54298;52.076;5.264;2022-09-02T07:09:50;2.4;;;0.9;;
67429;SDS011;54298;52.076;5.264;2022-09-02T07:13:03;4.1;;;0.9;;
67429;SDS011;54298;52.076;5.264;2022-09-02T07:14:40;4.2;;;0.8;;
67429;SDS011;54298;52.076;5.264;2022-09-02T07:16:18;3.4;;;0.8;;
67429;SDS011;54298;52.076;5.264;2022-09-02T07:19:30;4.1;;;0.9;;
67429;SDS011;54298;52.076;5.264;2022-09-02T07:21:07;7.6;;;1.11;;
67429;SDS011;54298;52.076;5.264;2022-09-02T07:22:44;2.9;;;0.7;;
67429;SDS011;54298;52.076;5.264;2022-09-02T07:24:20;8.4;;;1.4;;
67429;SDS011;54298;52.076;5.264;2022-09-02T07:27:33;6.6;;;0.9;;
67429;SDS011;54298;52.076;5.264;2022-09-02T07:29:11;2.21;;;0.6;;
67429;SDS011;54298;52.076;5.264;2022-09-02T07:30:48;7.8;;;1.11;;
67429;SDS011;54298;52.076;5.264;2022-09-02T07:34:00;3.6;;;0.9;;
67429;SDS011;54298;52.076;5.264;2022-09-02T07:35:37;6.3;;;3.4;;
67429;SDS011;54298;52.076;5.264;2022-09-02T07:37:13;4.41;;;1.8;;
67429;SDS011;54298;52.076;5.264;2022-09-02T07:40:26;6.7;;;2.5;;
67429;SDS011;54298;52.076;5.264;2022-09-02T07:42:03;6.3;;;2.0;;
67429;SDS011;54298;52.076;5.264;2022-09-02T07:43:41;5.2;;;2.4;;
67429;SDS011;54298;52.076;5.264;2022-09-02T07:45:17;3.5;;;1.8;;
67429;SDS011;54298;52.076;5.264;2022-09-02T07:48:32;8.2;;;3.9;;
67429;SDS011;54298;52.076;5.264;2022-09-02T07:50:11;7.4;;;2.0;;
67429;SDS011;54298;52.076;5.264;2022-09-02T07:51:48;6.3;;;2.1;;
67429;SDS011;54298;52.076;5.264;2022-09-02T07:55:03;8.71;;;3.6;;
67429;SDS011;54298;52.076;5.264;2022-09-02T07:56:42;11.4;;;1.6;;
67429;SDS011;54298;52.076;5.264;2022-09-02T07:58:19;10.7;;;4.41;;
67429;SDS011;54298;52.076;5.264;2022-09-02T07:59:56;9.9;;;5.3;;
67429;SDS011;54298;52.076;5.264;2022-09-02T08:03:11;17.0;;;6.5;;
67429;SDS011;54298;52.076;5.264;2022-09-02T08:04:49;10.7;;;4.61;;
67429;SDS011;54298;52.076;5.264;2022-09-02T08:06:27;10.3;;;4.2;;
67429;SDS011;54298;52.076;5.264;2022-09-02T08:09:42;6.0;;;1.8;;
67429;SDS011;54298;52.076;5.264;2022-09-02T08:11:18;7.0;;;1.9;;
67429;SDS011;54298;52.076;5.264;2022-09-02T08:12:55;5.9;;;1.7;;
67429;SDS011;54298;52.076;5.264;2022-09-02T08:14:32;11.1;;;6.8;;
67429;SDS011;54298;52.076;5.264;2022-09-02T08:17:44;17.91;;;9.6;;
67429;SDS011;54298;52.076;5.264;2022-09-02T08:19:21;24.7;;;16.0;;
67429;SDS011;54298;52.076;5.264;2022-09-02T08:20:58;16.0;;;8.6;;
67429;SDS011;54298;52.076;5.264;2022-09-02T08:24:12;7.4;;;1.8;;
67429;SDS011;54298;52.076;5.264;2022-09-02T08:25:48;9.5;;;1.8;;
67429;SDS011;54298;52.076;5.264;2022-09-02T08:27:26;9.71;;;2.1;;
67429;SDS011;54298;52.076;5.264;2022-09-02T08:30:40;6.0;;;1.4;;
67429;SDS011;54298;52.076;5.264;2022-09-02T08:32:16;7.4;;;2.4;;
67429;SDS011;54298;52.076;5.264;2022-09-02T08:33:52;7.4;;;1.5;;
67429;SDS011;54298;52.076;5.264;2022-09-02T08:35:29;6.8;;;1.4;;
67429;SDS011;54298;52.076;5.264;2022-09-02T08:38:42;4.41;;;1.5;;
67429;SDS011;54298;52.076;5.264;2022-09-02T08:40:20;4.7;;;1.11;;
67429;SDS011;54298;52.076;5.264;2022-09-02T08:42:01;6.9;;;1.4;;
67429;SDS011;54298;52.076;5.264;2022-09-02T08:43:43;6.1;;;1.4;;
67429;SDS011;54298;52.076;5.264;2022-09-02T08:47:04;6.0;;;1.4;;
67429;SDS011;54298;52.076;5.264;2022-09-02T08:48:45;6.6;;;1.2;;
67429;SDS011;54298;52.076;5.264;2022-09-02T08:50:26;6.2;;;1.5;;
67429;SDS011;54298;52.076;5.264;2022-09-02T08:52:05;5.9;;;1.2;;
67429;SDS011;54298;52.076;5.264;2022-09-02T08:55:27;7.3;;;1.11;;
67429;SDS011;54298;52.076;5.264;2022-09-02T08:57:10;4.0;;;1.3;;
67429;SDS011;54298;52.076;5.264;2022-09-02T08:58:48;7.4;;;1.3;;
67429;SDS011;54298;52.076;5.264;2022-09-02T09:02:16;4.61;;;1.2;;
67429;SDS011;54298;52.076;5.264;2022-09-02T09:04:10;4.41;;;1.3;;
67429;SDS011;54298;52.076;5.264;2022-09-02T09:05:54;4.61;;;1.4;;
67429;SDS011;54298;52.076;5.264;2022-09-02T09:07:42;3.5;;;1.0;;
67429;SDS011;54298;52.076;5.264;2022-09-02T09:09:34;9.31;;;1.5;;
67429;SDS011;54298;52.076;5.264;2022-09-02T09:11:22;5.9;;;1.11;;
67429;SDS011;54298;52.076;5.264;2022-09-02T09:13:14;5.2;;;2.4;;
67429;SDS011;54298;52.076;5.264;2022-09-02T09:15:12;7.7;;;3.1;;
67429;SDS011;54298;52.076;5.264;2022-09-02T09:18:37;16.11;;;9.5;;
67429;SDS011;54298;52.076;5.264;2022-09-02T09:20:16;11.8;;;6.5;;
67429;SDS011;54298;52.076;5.264;2022-09-02T09:21:54;10.1;;;3.7;;
67429;SDS011;54298;52.076;5.264;2022-09-02T09:23:33;8.5;;;2.8;;
67429;SDS011;54298;52.076;5.264;2022-09-02T09:26:53;7.7;;;1.9;;
67429;SDS011;54298;52.076;5.264;2022-09-02T09:28:30;5.3;;;1.8;;
67429;SDS011;54298;52.076;5.264;2022-09-02T09:30:07;6.2;;;2.0;;
67429;SDS011;54298;52.076;5.264;2022-09-02T09:33:34;4.7;;;1.4;;
67429;SDS011;54298;52.076;5.264;2022-09-02T09:35:11;3.6;;;1.4;;
67429;SDS011;54298;52.076;5.264;2022-09-02T09:36:51;7.7;;;1.4;;
67429;SDS011;54298;52.076;5.264;2022-09-02T09:38:29;7.4;;;1.7;;
67429;SDS011;54298;52.076;5.264;2022-09-02T09:42:08;4.91;;;1.2;;
67429;SDS011;54298;52.076;5.264;2022-09-02T09:43:49;4.1;;;1.4;;
67429;SDS011;54298;52.076;5.264;2022-09-02T09:45:26;4.5;;;1.2;;
67429;SDS011;54298;52.076;5.264;2022-09-02T09:47:08;5.0;;;1.4;;
67429;SDS011;54298;52.076;5.264;2022-09-02T09:48:48;2.8;;;1.3;;
67429;SDS011;54298;52.076;5.264;2022-09-02T09:52:01;6.2;;;1.3;;
67429;SDS011;54298;52.076;5.264;2022-09-02T09:53:39;5.9;;;1.2;;
67429;SDS011;54298;52.076;5.264;2022-09-02T09:55:16;6.3;;;1.5;;
67429;SDS011;54298;52.076;5.264;2022-09-02T09:58:49;3.8;;;1.2;;
67429;SDS011;54298;52.076;5.264;2022-09-02T10:00:26;3.6;;;1.3;;
67429;SDS011;54298;52.076;5.264;2022-09-02T10:02:09;7.2;;;1.5;;
67429;SDS011;54298;52.076;5.264;2022-09-02T10:03:55;5.7;;;1.5;;
67429;SDS011;54298;52.076;5.264;2022-09-02T10:05:34;4.0;;;1.2;;
67429;SDS011;54298;52.076;5.264;2022-09-02T10:09:28;10.0;;;1.6;;
67429;SDS011;54298;52.076;5.264;2022-09-02T10:11:17;6.1;;;1.7;;
67429;SDS011;54298;52.076;5.264;2022-09-02T10:12:57;6.0;;;1.4;;
67429;SDS011;54298;52.076;5.264;2022-09-02T10:14:52;5.5;;;1.7;;
67429;SDS011;54298;52.076;5.264;2022-09-02T10:16:32;6.2;;;1.5;;
67429;SDS011;54298;52.076;5.264;2022-09-02T10:18:22;11.0;;;1.7;;
67429;SDS011;54298;52.076;5.264;2022-09-02T10:20:09;21.2;;;12.6;;
67429;SDS011;54298;52.076;5.264;2022-09-02T10:24:15;12.3;;;5.7;;
67429;SDS011;54298;52.076;5.264;2022-09-02T10:26:19;15.8;;;6.1;;
67429;SDS011;54298;52.076;5.264;2022-09-02T10:29:58;8.71;;;1.8;;
67429;SDS011;54298;52.076;5.264;2022-09-02T10:31:55;8.0;;;2.0;;
67429;SDS011;54298;52.076;5.264;2022-09-02T10:33:53;5.9;;;1.4;;
67429;SDS011;54298;52.076;5.264;2022-09-02T10:35:44;7.9;;;1.8;;
67429;SDS011;54298;52.076;5.264;2022-09-02T10:37:23;7.1;;;1.6;;
67429;SDS011;54298;52.076;5.264;2022-09-02T10:39:07;11.2;;;2.0;;
67429;SDS011;54298;52.076;5.264;2022-09-02T10:40:55;9.5;;;1.7;;
67429;SDS011;54298;52.076;5.264;2022-09-02T10:44:38;6.1;;;2.0;;
67429;SDS011;54298;52.076;5.264;2022-09-02T10:46:25;6.7;;;1.8;;
67429;SDS011;54298;52.076;5.264;2022-09-02T10:48:16;8.6;;;1.4;;
67429;SDS011;54298;52.076;5.264;2022-09-02T10:50:09;5.5;;;1.8;;
67429;SDS011;54298;52.076;5.264;2022-09-02T10:51:54;5.4;;;1.7;;
67429;SDS011;54298;52.076;5.264;2022-09-02T10:53:47;7.4;;;1.5;;
67429;SDS011;54298;52.076;5.264;2022-09-02T10:55:44;5.3;;;1.8;;
67429;SDS011;54298;52.076;5.264;2022-09-02T10:59:13;5.9;;;1.5;;
67429;SDS011;54298;52.076;5.264;2022-09-02T11:00:56;14.1;;;6.3;;
67429;SDS011;54298;52.076;5.264;2022-09-02T11:02:33;6.8;;;2.21;;
67429;SDS011;54298;52.076;5.264;2022-09-02T11:04:17;14.4;;;6.2;;
67429;SDS011;54298;52.076;5.264;2022-09-02T11:06:02;11.5;;;5.9;;
67429;SDS011;54298;52.076;5.264;2022-09-02T11:09:29;15.1;;;7.9;;
67429;SDS011;54298;52.076;5.264;2022-09-02T11:11:10;10.0;;;2.5;;
67429;SDS011;54298;52.076;5.264;2022-09-02T11:12:51;4.7;;;1.7;;
67429;SDS011;54298;52.076;5.264;2022-09-02T11:14:36;3.9;;;1.4;;
67429;SDS011;54298;52.076;5.264;2022-09-02T11:18:14;8.1;;;1.4;;
67429;SDS011;54298;52.076;5.264;2022-09-02T11:19:58;3.3;;;1.4;;
67429;SDS011;54298;52.076;5.264;2022-09-02T11:21:47;3.3;;;1.4;;
67429;SDS011;54298;52.076;5.264;2022-09-02T11:23:33;6.9;;;1.11;;
67429;SDS011;54298;52.076;5.264;2022-09-02T11:25:18;5.7;;;1.4;;
67429;SDS011;54298;52.076;5.264;2022-09-02T11:27:00;5.9;;;1.2;;
67429;SDS011;54298;52.076;5.264;2022-09-02T11:30:30;7.8;;;1.4;;
67429;SDS011;54298;52.076;5.264;2022-09-02T11:32:18;3.1;;;1.4;;
67429;SDS011;54298;52.076;5.264;2022-09-02T11:34:04;3.6;;;1.4;;
67429;SDS011;54298;52.076;5.264;2022-09-02T11:35:53;5.7;;;1.2;;
67429;SDS011;54298;52.076;5.264;2022-09-02T11:37:30;4.7;;;1.4;;
67429;SDS011;54298;52.076;5.264;2022-09-02T11:41:06;7.1;;;1.7;;
67429;SDS011;54298;52.076;5.264;2022-09-02T11:43:02;5.9;;;1.3;;
67429;SDS011;54298;52.076;5.264;2022-09-02T11:44:56;2.9;;;1.4;;
67429;SDS011;54298;52.076;5.264;2022-09-02T11:51:04;6.8;;;2.31;;
67429;SDS011;54298;52.076;5.264;2022-09-02T11:53:10;5.5;;;1.4;;
67429;SDS011;54298;52.076;5.264;2022-09-02T11:55:00;3.0;;;1.11;;
67429;SDS011;54298;52.076;5.264;2022-09-02T11:56:43;5.6;;;2.31;;
67429;SDS011;54298;52.076;5.264;2022-09-02T11:58:40;5.4;;;1.9;;
67429;SDS011;54298;52.076;5.264;2022-09-02T12:02:05;6.6;;;1.3;;
67429;SDS011;54298;52.076;5.264;2022-09-02T12:03:42;8.71;;;2.31;;
67429;SDS011;54298;52.076;5.264;2022-09-02T12:06:25;5.11;;;1.4;;
67429;SDS011;54298;52.076;5.264;2022-09-02T12:08:03;7.0;;;1.2;;
67429;SDS011;54298;52.076;5.264;2022-09-02T12:09:46;13.4;;;1.6;;
67429;SDS011;54298;52.076;5.264;2022-09-02T12:11:56;4.7;;;1.3;;
67429;SDS011;54298;52.076;5.264;2022-09-02T12:13:34;7.6;;;1.3;;
67429;SDS011;54298;52.076;5.264;2022-09-02T12:15:13;5.6;;;1.5;;
67429;SDS011;54298;52.076;5.264;2022-09-02T12:18:41;8.4;;;1.5;;
67429;SDS011;54298;52.076;5.264;2022-09-02T12:22:57;3.9;;;1.3;;
67429;SDS011;54298;52.076;5.264;2022-09-02T12:24:47;6.3;;;1.3;;
67429;SDS011;54298;52.076;5.264;2022-09-02T12:26:27;7.3;;;1.6;;
67429;SDS011;54298;52.076;5.264;2022-09-02T12:28:14;7.2;;;1.6;;
67429;SDS011;54298;52.076;5.264;2022-09-02T12:29:58;5.5;;;1.5;;
67429;SDS011;54298;52.076;5.264;2022-09-02T12:33:23;4.3;;;1.3;;
67429;SDS011;54298;52.076;5.264;2022-09-02T12:35:07;6.8;;;1.5;;
67429;SDS011;54298;52.076;5.264;2022-09-02T12:36:47;5.3;;;1.5;;
67429;SDS011;54298;52.076;5.264;2022-09-02T12:38:28;6.2;;;1.5;;
67429;SDS011;54298;52.076;5.264;2022-09-02T12:40:11;5.8;;;1.4;;
67429;SDS011;54298;52.076;5.264;2022-09-02T12:43:44;7.3;;;1.5;;
67429;SDS011;54298;52.076;5.264;2022-09-02T12:45:31;4.2;;;1.3;;
67429;SDS011;54298;52.076;5.264;2022-09-02T12:47:21;4.8;;;1.2;;
67429;SDS011;54298;52.076;5.264;2022-09-02T12:49:08;6.4;;;1.3;;
67429;SDS011;54298;52.076;5.264;2022-09-02T12:51:00;4.41;;;1.3;;
67429;SDS011;54298;52.076;5.264;2022-09-02T12:54:23;5.9;;;1.5;;
67429;SDS011;54298;52.076;5.264;2022-09-02T12:56:17;9.9;;;1.4;;
67429;SDS011;54298;52.076;5.264;2022-09-02T12:58:04;4.61;;;1.6;;
67429;SDS011;54298;52.076;5.264;2022-09-02T12:59:44;7.0;;;1.5;;
67429;SDS011;54298;52.076;5.264;2022-09-02T13:01:24;6.7;;;1.2;;
67429;SDS011;54298;52.076;5.264;2022-09-02T13:03:16;4.1;;;1.3;;
67429;SDS011;54298;52.076;5.264;2022-09-02T13:07:06;6.3;;;1.4;;
67429;SDS011;54298;52.076;5.264;2022-09-02T13:10:36;4.7;;;1.3;;
67429;SDS011;54298;52.076;5.264;2022-09-02T13:14:45;6.0;;;1.5;;
67429;SDS011;54298;52.076;5.264;2022-09-02T13:16:43;2.7;;;1.11;;
67429;SDS011;54298;52.076;5.264;2022-09-02T13:19:46;2.7;;;1.3;;
67429;SDS011;54298;52.076;5.264;2022-09-02T13:22:09;5.3;;;1.4;;